createdAt,value
2018-04-22T00:00:09.676Z,9.50
2018-04-22T00:02:37.980Z,10.88
2018-04-22T00:05:06.300Z,10.10
2018-04-22T00:07:34.629Z,11.70
2018-04-22T00:10:03.742Z,8.97
2018-04-22T00:12:32.828Z,11.60
2018-04-22T00:15:01.170Z,11.87
2018-04-22T00:17:29.525Z,10.20
2018-04-22T00:19:57.974Z,9.60
2018-04-22T00:22:27.185Z,11.27
2018-04-22T00:24:55.489Z,11.40
2018-04-22T00:27:23.814Z,11.83
2018-04-22T00:29:52.369Z,10.83
2018-04-22T00:32:20.875Z,11.33
2018-04-22T00:34:49.256Z,10.57
2018-04-22T00:37:18.346Z,11.47
2018-04-22T00:39:48.823Z,10.73
2018-04-22T00:42:17.207Z,11.70
2018-04-22T00:44:45.686Z,10.60
2018-04-22T00:47:13.981Z,11.67
2018-04-22T00:49:42.316Z,12.80
2018-04-22T00:52:10.621Z,11.10
2018-04-22T00:54:38.966Z,10.37
2018-04-22T00:57:08.097Z,11.57
2018-04-22T00:59:36.522Z,11.47
2018-04-22T01:02:05.046Z,10.48
2018-04-22T01:04:33.521Z,11.37
2018-04-22T01:07:03.008Z,10.30
2018-04-22T01:09:32.086Z,11.43
2018-04-22T01:12:01.362Z,10.73
2018-04-22T01:14:29.856Z,11.30
2018-04-22T01:16:58.185Z,10.00
2018-04-22T01:19:26.465Z,11.30
2018-04-22T01:21:54.976Z,10.93
2018-04-22T01:24:23.409Z,10.00
2018-04-22T01:26:51.886Z,11.80
2018-04-22T01:29:20.999Z,9.90
2018-04-22T01:31:49.335Z,11.52
2018-04-22T01:34:18.452Z,9.77
2018-04-22T01:36:47.616Z,10.60
2018-04-22T01:39:16.000Z,10.60
2018-04-22T01:41:44.307Z,12.10
2018-04-22T01:44:13.526Z,10.27
2018-04-22T01:46:41.877Z,10.63
2018-04-22T01:49:11.087Z,10.40
2018-04-22T01:51:40.423Z,10.80
2018-04-22T01:54:08.757Z,11.40
2018-04-22T01:56:37.895Z,11.02
2018-04-22T01:59:06.284Z,12.07
2018-04-22T02:01:34.631Z,10.80
2018-04-22T02:04:03.204Z,10.98
2018-04-22T02:06:31.530Z,10.50
2018-04-22T02:08:59.831Z,11.47
2018-04-22T02:11:29.055Z,11.70
2018-04-22T02:13:58.340Z,10.33
2018-04-22T02:16:27.444Z,11.07
2018-04-22T02:18:56.596Z,10.80
2018-04-22T02:21:24.975Z,11.43
2018-04-22T02:23:54.013Z,9.53
2018-04-22T02:26:23.221Z,10.97
2018-04-22T02:28:51.609Z,10.67
2018-04-22T02:31:19.950Z,10.73
2018-04-22T02:33:48.228Z,9.47
2018-04-22T02:36:16.503Z,11.50
2018-04-22T02:38:45.634Z,9.70
2018-04-22T02:41:13.950Z,10.10
2018-04-22T02:43:42.227Z,11.53
2018-04-22T02:46:11.669Z,11.60
2018-04-22T02:48:40.828Z,11.17
2018-04-22T02:51:09.200Z,11.03
2018-04-22T02:53:37.518Z,11.03
2018-04-22T02:56:06.654Z,13.90
2018-04-22T02:58:35.049Z,13.93
2018-04-22T03:01:03.466Z,26.37
2018-04-22T03:03:32.791Z,22.97
2018-04-22T03:06:01.234Z,26.93
2018-04-22T03:08:29.555Z,33.40
2018-04-22T03:10:57.825Z,28.08
2018-04-22T03:13:26.205Z,26.93
2018-04-22T03:15:54.480Z,22.10
2018-04-22T03:18:23.201Z,17.95
2018-04-22T03:20:51.558Z,15.87
2018-04-22T03:23:19.985Z,22.00
2018-04-22T03:25:48.312Z,16.03
2018-04-22T03:28:16.817Z,18.02
2018-04-22T03:30:45.486Z,15.90
2018-04-22T03:33:13.756Z,12.23
2018-04-22T03:35:42.170Z,12.15
2018-04-22T03:38:10.587Z,12.48
2018-04-22T03:40:39.696Z,11.53
2018-04-22T03:43:08.093Z,12.53
2018-04-22T03:45:36.562Z,12.13
2018-04-22T03:48:06.717Z,12.00
2018-04-22T03:50:35.446Z,11.93
2018-04-22T03:53:04.557Z,11.00
2018-04-22T03:55:32.982Z,10.30
2018-04-22T03:58:01.618Z,11.77
2018-04-22T04:00:30.768Z,11.77
2018-04-22T04:02:59.062Z,11.70
2018-04-22T04:05:28.188Z,10.10
2018-04-22T04:07:57.253Z,11.40
2018-04-22T04:10:25.581Z,9.68
2018-04-22T04:12:54.109Z,11.50
2018-04-22T04:15:22.572Z,10.67
2018-04-22T04:21:37.097Z,11.23
2018-04-22T04:27:45.927Z,10.20
2018-04-22T04:30:14.235Z,10.23
2018-04-22T04:32:42.502Z,11.07
2018-04-22T04:35:11.646Z,11.63
2018-04-22T04:37:39.978Z,11.32
2018-04-22T04:40:09.032Z,11.80
2018-04-22T04:42:37.556Z,10.65
2018-04-22T04:45:05.858Z,8.87
2018-04-22T04:47:34.291Z,10.30
2018-04-22T04:50:03.498Z,9.80
2018-04-22T04:52:33.781Z,11.30
2018-04-22T04:55:02.317Z,12.07
2018-04-22T04:57:30.773Z,11.47
2018-04-22T05:00:01.872Z,11.23
2018-04-22T05:02:30.207Z,9.80
2018-04-22T05:04:59.343Z,11.63
2018-04-22T05:07:27.666Z,11.53
2018-04-22T05:09:56.726Z,11.90
2018-04-22T05:12:25.108Z,9.93
2018-04-22T05:14:53.548Z,10.50
2018-04-22T05:17:21.917Z,12.10
2018-04-22T05:19:51.219Z,10.80
2018-04-22T05:22:19.538Z,12.20
2018-04-22T05:24:48.123Z,10.73
2018-04-22T05:27:16.618Z,11.23
2018-04-22T05:29:44.933Z,12.10
2018-04-22T05:32:14.026Z,12.23
2018-04-22T05:34:43.206Z,12.03
2018-04-22T05:37:12.305Z,12.33
2018-04-22T05:39:41.487Z,12.13
2018-04-22T05:42:10.013Z,12.52
2018-04-22T05:44:38.309Z,12.20
2018-04-22T05:47:06.746Z,12.93
2018-04-22T05:49:36.072Z,13.73
2018-04-22T05:52:04.373Z,13.73
2018-04-22T05:54:32.772Z,12.53
2018-04-22T05:57:01.342Z,12.63
2018-04-22T05:59:29.680Z,12.57
2018-04-22T06:01:58.829Z,13.00
2018-04-22T06:04:27.113Z,13.27
2018-04-22T06:06:55.461Z,12.90
2018-04-22T06:09:23.785Z,19.77
2018-04-22T06:11:52.545Z,16.67
2018-04-22T06:14:20.868Z,16.00
2018-04-22T06:16:50.129Z,13.80
2018-04-22T06:19:18.432Z,15.10
2018-04-22T06:21:47.544Z,15.10
2018-04-22T06:24:15.826Z,12.10
2018-04-22T06:26:44.169Z,14.05
2018-04-22T06:29:13.603Z,13.38
2018-04-22T06:31:42.802Z,12.67
2018-04-22T06:34:11.379Z,12.87
2018-04-22T06:36:40.419Z,13.57
2018-04-22T06:39:08.787Z,11.35
2018-04-22T06:41:37.468Z,9.17
2018-04-22T06:44:05.917Z,12.47
2018-04-22T06:46:34.975Z,7.10
2018-04-22T06:49:01.937Z,7.00
2018-04-22T06:51:29.637Z,7.83
2018-04-22T06:53:56.389Z,8.07
2018-04-22T06:56:23.223Z,9.90
2018-04-22T06:58:50.076Z,9.83
2018-04-22T07:01:17.017Z,8.70
2018-04-22T07:03:43.754Z,8.33
2018-04-22T07:06:10.616Z,8.17
2018-04-22T07:08:37.429Z,9.57
2018-04-22T07:11:04.321Z,10.93
2018-04-22T07:13:31.226Z,8.17
2018-04-22T07:15:58.114Z,9.23
2018-04-22T07:18:25.025Z,8.90
2018-04-22T07:20:52.004Z,7.70
2018-04-22T07:23:18.823Z,8.77
2018-04-22T07:25:45.809Z,8.20
2018-04-22T07:28:13.463Z,9.30
2018-04-22T07:30:40.325Z,7.73
2018-04-22T07:33:07.910Z,7.70
2018-04-22T07:35:35.928Z,10.00
2018-04-22T07:38:03.544Z,8.30
2018-04-22T07:40:30.432Z,8.20
2018-04-22T07:42:57.208Z,9.50
2018-04-22T07:45:24.923Z,9.30
2018-04-22T07:47:51.783Z,8.70
2018-04-22T07:50:18.652Z,10.07
2018-04-22T07:52:46.240Z,8.97
2018-04-22T07:55:13.123Z,8.07
2018-04-22T08:00:13.394Z,11.03
2018-04-22T08:02:41.327Z,9.47
2018-04-22T08:05:08.234Z,7.43
2018-04-22T08:07:35.179Z,9.17
2018-04-22T08:10:01.947Z,9.83
2018-04-22T08:12:30.443Z,8.40
2018-04-22T08:14:57.289Z,11.90
2018-04-22T08:17:24.120Z,6.90
2018-04-22T08:19:51.291Z,9.30
2018-04-22T08:22:18.905Z,8.67
2018-04-22T08:24:45.733Z,10.47
2018-04-22T08:27:12.614Z,8.20
2018-04-22T08:29:39.738Z,7.57
2018-04-22T08:32:06.639Z,7.77
2018-04-22T08:34:34.219Z,8.00
2018-04-22T08:37:01.225Z,10.60
2018-04-22T08:39:28.118Z,7.90
2018-04-22T08:41:55.385Z,8.13
2018-04-22T08:44:22.360Z,8.03
2018-04-22T08:46:49.303Z,7.03
2018-04-22T08:49:16.428Z,20.30
2018-04-22T08:51:44.280Z,6.97
2018-04-22T08:54:11.357Z,6.63
2018-04-22T08:56:38.389Z,7.93
2018-04-22T08:59:05.429Z,7.93
2018-04-22T09:01:32.454Z,7.63
2018-04-22T09:03:59.239Z,7.37
2018-04-22T09:06:26.068Z,6.57
2018-04-22T09:08:54.113Z,6.47
2018-04-22T09:11:20.985Z,7.17
2018-04-22T09:13:47.881Z,7.00
2018-04-22T09:16:15.030Z,6.60
2018-04-22T09:18:41.849Z,7.17
2018-04-22T09:21:09.478Z,7.17
2018-04-22T09:23:37.267Z,7.07
2018-04-22T09:26:04.548Z,5.83
2018-04-22T09:28:31.731Z,7.40
2018-04-22T09:30:58.561Z,6.97
2018-04-22T09:33:25.792Z,7.13
2018-04-22T09:35:52.959Z,6.63
2018-04-22T09:38:20.028Z,6.37
2018-04-22T09:40:47.268Z,6.97
2018-04-22T09:43:14.493Z,6.27
2018-04-22T09:45:41.376Z,6.67
2018-04-22T09:48:08.427Z,5.83
2018-04-22T09:50:35.263Z,6.30
2018-04-22T09:53:03.069Z,6.70
2018-04-22T09:55:30.003Z,6.50
2018-04-22T09:57:57.030Z,7.90
2018-04-22T10:00:29.782Z,6.63
2018-04-22T10:02:58.336Z,6.23
2018-04-22T10:05:25.129Z,5.37
2018-04-22T10:07:52.707Z,5.97
2018-04-22T10:10:19.884Z,6.10
2018-04-22T10:12:46.994Z,5.80
2018-04-22T10:15:14.010Z,6.20
2018-04-22T10:17:41.768Z,5.63
2018-04-22T10:20:08.870Z,6.23
2018-04-22T10:22:35.782Z,5.73
2018-04-22T10:25:02.788Z,6.67
2018-04-22T10:27:29.953Z,5.70
2018-04-22T10:29:57.842Z,4.87
2018-04-22T10:32:24.796Z,5.13
2018-04-22T10:34:51.933Z,5.10
2018-04-22T10:37:19.428Z,4.77
2018-04-22T10:39:46.959Z,4.70
2018-04-22T10:42:13.916Z,4.80
2018-04-22T10:44:40.940Z,5.70
2018-04-22T10:47:08.854Z,5.30
2018-04-22T10:49:36.049Z,4.50
2018-04-22T10:52:03.997Z,4.30
2018-04-22T10:54:30.820Z,5.10
2018-04-22T10:56:57.963Z,4.43
2018-04-22T10:59:24.728Z,4.77
2018-04-22T11:01:51.532Z,4.90
2018-04-22T11:04:18.347Z,4.17
2018-04-22T11:06:45.298Z,4.70
2018-04-22T11:09:12.234Z,4.43
2018-04-22T11:11:39.374Z,4.80
2018-04-22T11:14:06.449Z,4.00
2018-04-22T11:16:33.486Z,4.73
2018-04-22T11:19:00.378Z,4.20
2018-04-22T11:21:27.786Z,4.37
2018-04-22T11:23:54.891Z,4.00
2018-04-22T11:26:22.635Z,4.30
2018-04-22T11:28:49.675Z,4.20
2018-04-22T11:31:16.791Z,4.30
2018-04-22T11:33:43.815Z,4.80
2018-04-22T11:36:10.654Z,6.37
2018-04-22T11:38:37.471Z,5.60
2018-04-22T11:41:05.143Z,10.57
2018-04-22T11:43:32.105Z,4.37
2018-04-22T11:45:58.905Z,4.70
2018-04-22T11:48:26.672Z,4.33
2018-04-22T11:50:54.207Z,4.03
2018-04-22T11:53:21.303Z,3.53
2018-04-22T11:55:48.083Z,4.23
2018-04-22T11:58:15.038Z,4.13
2018-04-22T12:00:42.070Z,4.60
2018-04-22T12:03:09.194Z,4.13
2018-04-22T12:05:35.952Z,4.20
2018-04-22T12:08:03.605Z,5.00
2018-04-22T12:10:30.473Z,4.27
2018-04-22T12:12:57.245Z,4.73
2018-04-22T12:15:24.858Z,4.40
2018-04-22T12:17:52.080Z,4.20
2018-04-22T12:20:18.899Z,5.47
2018-04-22T12:22:45.744Z,4.30
2018-04-22T12:25:12.685Z,4.60
2018-04-22T12:27:39.661Z,4.70
2018-04-22T12:30:06.639Z,4.40
2018-04-22T12:32:33.629Z,4.23
2018-04-22T12:35:00.480Z,4.17
2018-04-22T12:37:27.422Z,3.87
2018-04-22T12:39:54.380Z,4.13
2018-04-22T12:42:21.436Z,4.17
2018-04-22T12:44:48.276Z,3.60
2018-04-22T12:47:16.295Z,3.63
2018-04-22T12:49:44.016Z,3.80
2018-04-22T12:52:10.850Z,3.87
2018-04-22T12:54:39.348Z,3.00
2018-04-22T12:57:06.250Z,3.40
2018-04-22T12:59:33.154Z,3.90
2018-04-22T13:02:00.811Z,3.97
2018-04-22T13:04:28.381Z,3.73
2018-04-22T13:06:56.072Z,4.17
2018-04-22T13:09:23.045Z,5.90
2018-04-22T13:11:50.042Z,4.27
2018-04-22T13:14:16.940Z,3.73
2018-04-22T13:16:43.732Z,3.63
2018-04-22T13:19:10.792Z,3.83
2018-04-22T13:21:37.606Z,3.50
2018-04-22T13:24:04.351Z,4.10
2018-04-22T13:26:31.196Z,4.17
2018-04-22T13:28:58.076Z,3.80
2018-04-22T13:31:25.067Z,4.53
2018-04-22T13:33:52.605Z,3.70
2018-04-22T13:36:19.409Z,3.80
2018-04-22T13:38:46.389Z,3.93
2018-04-22T13:41:13.249Z,3.57
2018-04-22T13:43:40.867Z,4.43
2018-04-22T13:46:07.745Z,5.47
2018-04-22T13:48:35.402Z,4.23
2018-04-22T13:51:02.965Z,5.27
2018-04-22T13:53:30.566Z,5.57
2018-04-22T13:55:57.575Z,5.53
2018-04-22T13:58:24.476Z,6.60
2018-04-22T14:00:51.390Z,5.27
2018-04-22T14:03:18.230Z,5.83
2018-04-22T14:05:45.050Z,6.50
2018-04-22T14:08:12.221Z,6.10
2018-04-22T14:10:39.013Z,5.00
2018-04-22T14:13:06.602Z,5.13
2018-04-22T14:15:33.590Z,5.10
2018-04-22T14:18:00.508Z,5.20
2018-04-22T14:20:27.478Z,5.67
2018-04-22T14:22:54.405Z,5.40
2018-04-22T14:25:21.370Z,6.37
2018-04-22T14:27:49.106Z,6.23
2018-04-22T14:30:16.038Z,6.43
2018-04-22T14:32:42.989Z,7.70
2018-04-22T14:35:10.027Z,7.20
2018-04-22T14:37:36.991Z,9.53
2018-04-22T14:40:03.887Z,6.20
2018-04-22T14:42:30.929Z,8.60
2018-04-22T14:45:16.129Z,9.70
2018-04-22T14:47:43.110Z,9.90
2018-04-22T14:50:10.038Z,9.87
2018-04-22T14:52:36.824Z,8.93
2018-04-22T14:55:04.352Z,8.53
2018-04-22T14:57:31.609Z,7.70
2018-04-22T14:59:59.183Z,6.17
2018-04-22T15:02:26.943Z,6.93
2018-04-22T15:04:54.668Z,7.00
2018-04-22T15:07:21.588Z,6.20
2018-04-22T15:09:49.451Z,7.33
2018-04-22T15:12:16.302Z,6.50
2018-04-22T15:14:43.256Z,8.53
2018-04-22T15:17:10.144Z,6.83
2018-04-22T15:19:37.783Z,7.80
2018-04-22T15:22:04.800Z,10.17
2018-04-22T15:24:31.641Z,9.30
2018-04-22T15:26:58.712Z,9.90
2018-04-22T15:29:25.909Z,8.03
2018-04-22T15:31:52.805Z,8.43
2018-04-22T15:34:19.798Z,6.80
2018-04-22T15:36:46.661Z,6.57
2018-04-22T15:39:13.895Z,6.43
2018-04-22T15:41:40.705Z,5.60
2018-04-22T15:44:08.505Z,4.83
2018-04-22T15:46:35.650Z,5.30
2018-04-22T15:49:02.691Z,5.23
2018-04-22T15:51:29.855Z,4.47
2018-04-22T15:53:56.857Z,4.23
2018-04-22T15:56:24.776Z,4.17
2018-04-22T15:58:51.703Z,4.70
2018-04-22T16:01:18.645Z,4.63
2018-04-22T16:03:45.550Z,3.90
2018-04-22T16:06:13.525Z,4.30
2018-04-22T16:08:41.128Z,6.13
2018-04-22T16:11:08.059Z,4.53
2018-04-22T16:13:36.050Z,6.03
2018-04-22T16:16:02.898Z,4.50
2018-04-22T16:18:29.859Z,5.10
2018-04-22T16:20:56.772Z,5.27
2018-04-22T16:23:23.833Z,3.93
2018-04-22T16:25:57.910Z,5.13
2018-04-22T16:28:25.191Z,4.87
2018-04-22T16:30:52.046Z,4.43
2018-04-22T16:33:18.958Z,4.60
2018-04-22T16:35:46.322Z,5.73
2018-04-22T16:38:13.139Z,4.10
2018-04-22T16:40:40.108Z,4.60
2018-04-22T16:43:07.095Z,12.67
2018-04-22T16:45:34.805Z,5.13
2018-04-22T16:48:01.712Z,4.97
2018-04-22T16:50:28.880Z,4.57
2018-04-22T16:52:55.817Z,4.80
2018-04-22T16:55:23.070Z,4.27
2018-04-22T16:57:51.049Z,4.33
2018-04-22T17:00:17.854Z,4.80
2018-04-22T17:02:44.936Z,4.10
2018-04-22T17:05:11.881Z,4.03
2018-04-22T17:07:38.706Z,4.30
2018-04-22T17:10:05.650Z,4.30
2018-04-22T17:12:32.605Z,3.87
2018-04-22T17:14:59.407Z,3.53
2018-04-22T17:17:27.020Z,3.97
2018-04-22T17:19:53.952Z,3.60
2018-04-22T17:22:20.824Z,4.60
2018-04-22T17:24:47.686Z,4.27
2018-04-22T17:27:15.455Z,5.27
2018-04-22T17:29:42.986Z,4.23
2018-04-22T17:32:09.886Z,4.43
2018-04-22T17:34:37.031Z,3.83
2018-04-22T17:37:03.840Z,3.40
2018-04-22T17:39:31.430Z,4.40
2018-04-22T17:41:58.300Z,6.27
2018-04-22T17:44:25.115Z,6.07
2018-04-22T17:46:52.211Z,7.07
2018-04-22T17:49:19.975Z,5.73
2018-04-22T17:51:46.780Z,5.97
2018-04-22T17:54:13.717Z,4.77
2018-04-22T17:56:40.648Z,4.27
2018-04-22T17:59:07.697Z,4.07
2018-04-22T18:01:41.494Z,4.33
2018-04-22T18:04:08.488Z,4.50
2018-04-22T18:06:35.296Z,3.80
2018-04-22T18:09:02.145Z,3.80
2018-04-22T18:11:29.689Z,3.93
2018-04-22T18:13:57.012Z,3.83
2018-04-22T18:16:23.910Z,3.80
2018-04-22T18:18:51.103Z,3.93
2018-04-22T18:21:18.041Z,3.93
2018-04-22T18:23:45.027Z,4.27
2018-04-22T18:26:12.160Z,3.67
2018-04-22T18:28:39.162Z,3.80
2018-04-22T18:31:06.745Z,3.63
2018-04-22T18:33:33.658Z,3.67
2018-04-22T18:36:01.255Z,4.07
2018-04-22T18:38:28.088Z,4.33
2018-04-22T18:40:54.978Z,4.03
2018-04-22T18:43:21.918Z,3.80
2018-04-22T18:45:48.791Z,4.07
2018-04-22T18:48:16.546Z,3.47
2018-04-22T18:50:44.591Z,3.53
2018-04-22T18:53:11.558Z,3.63
2018-04-22T18:55:39.591Z,4.00
2018-04-22T18:58:06.413Z,4.07
2018-04-22T19:00:33.332Z,4.27
2018-04-22T19:03:00.304Z,4.27
2018-04-22T19:05:27.121Z,4.57
2018-04-22T19:07:53.869Z,4.87
2018-04-22T19:10:20.784Z,5.50
2018-04-22T19:12:48.477Z,5.97
2018-04-22T19:15:15.372Z,5.40
2018-04-22T19:17:42.198Z,5.50
2018-04-22T19:20:09.030Z,5.87
2018-04-22T19:22:35.832Z,5.27
2018-04-22T19:25:02.835Z,5.00
2018-04-22T19:27:29.659Z,6.47
2018-04-22T19:29:56.667Z,6.07
2018-04-22T19:32:23.671Z,6.63
2018-04-22T19:34:50.570Z,5.43
2018-04-22T19:37:17.337Z,5.40
2018-04-22T19:39:44.285Z,5.47
2018-04-22T19:42:11.220Z,5.67
2018-04-22T19:44:38.092Z,5.67
2018-04-22T19:47:05.755Z,5.80
2018-04-22T19:49:33.554Z,4.73
2018-04-22T19:52:00.368Z,5.83
2018-04-22T19:54:27.877Z,5.73
2018-04-22T19:56:54.770Z,6.17
2018-04-22T19:59:21.736Z,6.73
2018-04-22T20:01:48.740Z,6.50
2018-04-22T20:04:16.391Z,4.90
2018-04-22T20:06:44.095Z,18.10
2018-04-22T20:09:10.894Z,17.70
2018-04-22T20:11:37.832Z,8.80
2018-04-22T20:14:04.661Z,8.13
2018-04-22T20:16:31.446Z,7.27
2018-04-22T20:18:58.300Z,5.00
2018-04-22T20:21:25.108Z,8.03
2018-04-22T20:23:52.641Z,6.87
2018-04-22T20:26:19.553Z,6.07
2018-04-22T20:28:46.397Z,5.40
2018-04-22T20:31:13.363Z,6.00
2018-04-22T20:33:40.327Z,5.40
2018-04-22T20:36:07.099Z,7.07
2018-04-22T20:38:33.882Z,7.30
2018-04-22T20:41:00.690Z,6.87
2018-04-22T20:43:27.511Z,6.97
2018-04-22T20:45:55.095Z,5.87
2018-04-22T20:48:22.004Z,5.70
2018-04-22T20:50:49.834Z,6.60
2018-04-22T20:53:16.747Z,6.27
2018-04-22T20:55:43.931Z,6.33
2018-04-22T20:58:10.858Z,6.67
2018-04-22T21:00:37.636Z,6.00
2018-04-22T21:03:12.131Z,5.87
2018-04-22T21:05:38.973Z,6.73
2018-04-22T21:08:06.544Z,7.20
2018-04-22T21:10:34.236Z,6.17
2018-04-22T21:13:01.117Z,6.60
2018-04-22T21:15:28.060Z,6.53
2018-04-22T21:17:54.957Z,7.20
2018-04-22T21:20:22.499Z,6.93
2018-04-22T21:22:50.112Z,6.20
2018-04-22T21:25:16.888Z,7.13
2018-04-22T21:27:43.715Z,6.60
2018-04-22T21:30:10.506Z,5.60
2018-04-22T21:32:37.469Z,6.30
2018-04-22T21:35:04.277Z,6.40
2018-04-22T21:37:31.936Z,7.07
2018-04-22T21:39:59.586Z,6.43
2018-04-22T21:42:27.208Z,7.03
2018-04-22T21:44:54.098Z,5.97
2018-04-22T21:47:21.633Z,7.67
2018-04-22T21:49:49.390Z,5.97
2018-04-22T21:52:16.253Z,7.30
2018-04-22T21:54:44.216Z,7.00
2018-04-22T21:57:11.020Z,7.40
2018-04-22T21:59:37.773Z,7.20
2018-04-22T22:02:05.089Z,6.07
2018-04-22T22:04:31.903Z,5.33
2018-04-22T22:06:59.461Z,5.27
2018-04-22T22:09:27.050Z,5.43
2018-04-22T22:11:54.820Z,6.07
2018-04-22T22:14:21.713Z,5.70
2018-04-22T22:16:48.403Z,6.77
2018-04-22T22:19:15.589Z,7.00
2018-04-22T22:21:42.358Z,5.50
2018-04-22T22:24:10.212Z,8.47
2018-04-22T22:26:38.017Z,7.87
2018-04-22T22:29:04.893Z,7.57
2018-04-22T22:31:31.653Z,7.67
2018-04-22T22:33:58.448Z,8.97
2018-04-22T22:36:25.217Z,7.13
2018-04-22T22:38:51.968Z,7.07
2018-04-22T22:41:20.310Z,6.13
2018-04-22T22:43:47.082Z,6.33
2018-04-22T22:46:15.521Z,7.53
2018-04-22T22:48:42.334Z,8.07
2018-04-22T22:51:09.327Z,6.73
2018-04-22T22:53:36.291Z,7.57
2018-04-22T22:56:03.864Z,6.83
2018-04-22T22:58:31.456Z,7.70
2018-04-22T23:00:59.528Z,8.03
2018-04-22T23:03:26.407Z,6.83
2018-04-22T23:05:53.326Z,8.33
2018-04-22T23:08:21.132Z,8.20
2018-04-22T23:10:47.999Z,7.10
2018-04-22T23:13:14.946Z,7.17
2018-04-22T23:15:42.493Z,9.07
2018-04-22T23:18:10.039Z,8.03
2018-04-22T23:20:36.856Z,7.27
2018-04-22T23:23:03.895Z,7.40
2018-04-22T23:25:31.058Z,8.70
2018-04-22T23:27:57.752Z,7.50
2018-04-22T23:30:24.698Z,9.07
2018-04-22T23:32:51.441Z,7.57
2018-04-22T23:35:18.241Z,9.67
2018-04-22T23:37:44.927Z,9.00
2018-04-22T23:40:11.789Z,10.50
2018-04-22T23:42:38.522Z,11.33
2018-04-22T23:45:05.308Z,11.47
2018-04-22T23:47:32.828Z,11.27
2018-04-22T23:49:59.966Z,8.40
2018-04-22T23:52:26.967Z,10.37
2018-04-22T23:54:54.441Z,10.53
2018-04-22T23:57:21.352Z,9.33
2018-04-22T23:59:48.236Z,8.93
